sensor_id;sensor_type;location;lat;lon;timestamp;P1;durP1;ratioP1;P2;durP2;ratioP2
59390;SDS011;53405;57.012;40.984;2023-03-04T00:01:27;7.85;;;3.22;;
59390;SDS011;53405;57.012;40.984;2023-03-04T00:04:15;6.85;;;2.60;;
59390;SDS011;53405;57.012;40.984;2023-03-04T00:07:04;6.88;;;2.72;;
59390;SDS011;53405;57.012;40.984;2023-03-04T00:09:51;6.03;;;2.78;;
59390;SDS011;53405;57.012;40.984;2023-03-04T00:12:39;7.78;;;2.95;;
59390;SDS011;53405;57.012;40.984;2023-03-04T00:15:27;7.07;;;2.90;;
59390;SDS011;53405;57.012;40.984;2023-03-04T00:18:14;6.28;;;2.40;;
59390;SDS011;53405;57.012;40.984;2023-03-04T00:21:02;9.90;;;3.10;;
59390;SDS011;53405;57.012;40.984;2023-03-04T00:23:50;7.82;;;3.05;;
59390;SDS011;53405;57.012;40.984;2023-03-04T00:26:37;5.75;;;2.63;;
59390;SDS011;53405;57.012;40.984;2023-03-04T00:29:25;8.15;;;2.85;;
59390;SDS011;53405;57.012;40.984;2023-03-04T00:32:12;7.10;;;2.88;;
59390;SDS011;53405;57.012;40.984;2023-03-04T00:35:00;8.45;;;3.30;;
59390;SDS011;53405;57.012;40.984;2023-03-04T00:37:49;6.20;;;2.85;;
59390;SDS011;53405;57.012;40.984;2023-03-04T00:40:36;8.68;;;3.50;;
59390;SDS011;53405;57.012;40.984;2023-03-04T00:43:24;10.43;;;3.97;;
59390;SDS011;53405;57.012;40.984;2023-03-04T00:46:11;8.50;;;3.28;;
59390;SDS011;53405;57.012;40.984;2023-03-04T00:48:59;7.45;;;3.30;;
59390;SDS011;53405;57.012;40.984;2023-03-04T00:51:46;7.35;;;3.40;;
59390;SDS011;53405;57.012;40.984;2023-03-04T00:54:34;7.82;;;3.45;;
59390;SDS011;53405;57.012;40.984;2023-03-04T00:57:21;8.45;;;3.67;;
59390;SDS011;53405;57.012;40.984;2023-03-04T01:00:09;6.70;;;2.63;;
59390;SDS011;53405;57.012;40.984;2023-03-04T01:02:57;7.17;;;3.30;;
59390;SDS011;53405;57.012;40.984;2023-03-04T01:05:45;8.70;;;3.20;;
59390;SDS011;53405;57.012;40.984;2023-03-04T01:08:33;8.57;;;2.85;;
59390;SDS011;53405;57.012;40.984;2023-03-04T01:11:20;9.10;;;2.75;;
59390;SDS011;53405;57.012;40.984;2023-03-04T01:14:08;6.80;;;2.80;;
59390;SDS011;53405;57.012;40.984;2023-03-04T01:16:56;6.63;;;3.10;;
59390;SDS011;53405;57.012;40.984;2023-03-04T01:19:43;7.13;;;2.75;;
59390;SDS011;53405;57.012;40.984;2023-03-04T01:22:31;6.70;;;2.80;;
59390;SDS011;53405;57.012;40.984;2023-03-04T01:25:19;9.95;;;2.95;;
59390;SDS011;53405;57.012;40.984;2023-03-04T01:28:07;6.72;;;2.50;;
59390;SDS011;53405;57.012;40.984;2023-03-04T01:30:54;7.35;;;2.90;;
59390;SDS011;53405;57.012;40.984;2023-03-04T01:33:42;11.48;;;3.10;;
59390;SDS011;53405;57.012;40.984;2023-03-04T01:36:30;8.05;;;3.17;;
59390;SDS011;53405;57.012;40.984;2023-03-04T01:39:18;7.32;;;3.08;;
59390;SDS011;53405;57.012;40.984;2023-03-04T01:42:05;6.78;;;2.42;;
59390;SDS011;53405;57.012;40.984;2023-03-04T01:45:04;7.45;;;2.78;;
59390;SDS011;53405;57.012;40.984;2023-03-04T01:47:53;7.50;;;3.30;;
59390;SDS011;53405;57.012;40.984;2023-03-04T01:50:40;8.10;;;2.70;;
59390;SDS011;53405;57.012;40.984;2023-03-04T01:53:28;11.65;;;3.92;;
59390;SDS011;53405;57.012;40.984;2023-03-04T01:56:29;8.73;;;3.30;;
59390;SDS011;53405;57.012;40.984;2023-03-04T01:59:25;8.98;;;3.88;;
59390;SDS011;53405;57.012;40.984;2023-03-04T02:02:16;10.93;;;3.60;;
59390;SDS011;53405;57.012;40.984;2023-03-04T02:05:03;13.45;;;4.07;;
59390;SDS011;53405;57.012;40.984;2023-03-04T02:07:51;9.13;;;3.70;;
59390;SDS011;53405;57.012;40.984;2023-03-04T02:10:40;9.45;;;3.95;;
59390;SDS011;53405;57.012;40.984;2023-03-04T02:13:49;10.05;;;5.03;;
59390;SDS011;53405;57.012;40.984;2023-03-04T02:16:39;11.60;;;5.10;;
59390;SDS011;53405;57.012;40.984;2023-03-04T02:19:41;12.52;;;4.68;;
59390;SDS011;53405;57.012;40.984;2023-03-04T02:22:41;13.23;;;5.40;;
59390;SDS011;53405;57.012;40.984;2023-03-04T02:25:41;12.52;;;5.10;;
59390;SDS011;53405;57.012;40.984;2023-03-04T02:28:39;12.98;;;5.10;;
59390;SDS011;53405;57.012;40.984;2023-03-04T02:31:32;10.13;;;3.60;;
59390;SDS011;53405;57.012;40.984;2023-03-04T02:34:34;10.88;;;4.40;;
59390;SDS011;53405;57.012;40.984;2023-03-04T02:37:23;10.13;;;3.60;;
59390;SDS011;53405;57.012;40.984;2023-03-04T02:40:19;9.32;;;3.88;;
59390;SDS011;53405;57.012;40.984;2023-03-04T02:43:10;10.63;;;4.18;;
59390;SDS011;53405;57.012;40.984;2023-03-04T02:45:58;8.63;;;3.65;;
59390;SDS011;53405;57.012;40.984;2023-03-04T02:48:46;9.95;;;4.40;;
59390;SDS011;53405;57.012;40.984;2023-03-04T02:51:33;10.73;;;4.43;;
59390;SDS011;53405;57.012;40.984;2023-03-04T02:54:22;14.18;;;6.15;;
59390;SDS011;53405;57.012;40.984;2023-03-04T02:57:11;13.15;;;7.20;;
59390;SDS011;53405;57.012;40.984;2023-03-04T03:00:02;13.38;;;6.60;;
59390;SDS011;53405;57.012;40.984;2023-03-04T03:02:51;13.30;;;7.50;;
59390;SDS011;53405;57.012;40.984;2023-03-04T03:05:39;15.15;;;8.82;;
59390;SDS011;53405;57.012;40.984;2023-03-04T03:08:27;18.15;;;10.55;;
59390;SDS011;53405;57.012;40.984;2023-03-04T03:11:15;19.92;;;11.30;;
59390;SDS011;53405;57.012;40.984;2023-03-04T03:14:03;14.98;;;10.20;;
59390;SDS011;53405;57.012;40.984;2023-03-04T03:16:52;21.15;;;12.27;;
59390;SDS011;53405;57.012;40.984;2023-03-04T03:19:40;20.30;;;11.30;;
59390;SDS011;53405;57.012;40.984;2023-03-04T03:22:29;19.75;;;12.43;;
59390;SDS011;53405;57.012;40.984;2023-03-04T03:25:17;19.90;;;11.45;;
59390;SDS011;53405;57.012;40.984;2023-03-04T03:28:05;18.20;;;9.90;;
59390;SDS011;53405;57.012;40.984;2023-03-04T03:30:52;17.88;;;8.63;;
59390;SDS011;53405;57.012;40.984;2023-03-04T03:33:40;15.68;;;6.90;;
59390;SDS011;53405;57.012;40.984;2023-03-04T03:36:27;10.60;;;5.60;;
59390;SDS011;53405;57.012;40.984;2023-03-04T03:39:15;11.90;;;6.03;;
59390;SDS011;53405;57.012;40.984;2023-03-04T03:42:03;16.67;;;7.55;;
59390;SDS011;53405;57.012;40.984;2023-03-04T03:44:51;13.43;;;6.45;;
59390;SDS011;53405;57.012;40.984;2023-03-04T03:47:38;13.82;;;6.38;;
59390;SDS011;53405;57.012;40.984;2023-03-04T03:50:26;15.02;;;6.50;;
59390;SDS011;53405;57.012;40.984;2023-03-04T03:53:15;15.13;;;6.47;;
59390;SDS011;53405;57.012;40.984;2023-03-04T03:56:04;12.40;;;6.25;;
59390;SDS011;53405;57.012;40.984;2023-03-04T03:58:52;12.15;;;5.50;;
59390;SDS011;53405;57.012;40.984;2023-03-04T04:01:39;12.45;;;6.35;;
59390;SDS011;53405;57.012;40.984;2023-03-04T04:04:27;14.75;;;6.18;;
59390;SDS011;53405;57.012;40.984;2023-03-04T04:07:15;13.82;;;6.53;;
59390;SDS011;53405;57.012;40.984;2023-03-04T04:10:03;16.63;;;6.40;;
59390;SDS011;53405;57.012;40.984;2023-03-04T04:12:51;15.20;;;6.53;;
59390;SDS011;53405;57.012;40.984;2023-03-04T04:15:39;12.68;;;6.45;;
59390;SDS011;53405;57.012;40.984;2023-03-04T04:18:26;18.10;;;6.63;;
59390;SDS011;53405;57.012;40.984;2023-03-04T04:21:14;14.10;;;6.75;;
59390;SDS011;53405;57.012;40.984;2023-03-04T04:24:01;14.00;;;6.32;;
59390;SDS011;53405;57.012;40.984;2023-03-04T04:26:49;15.07;;;6.25;;
59390;SDS011;53405;57.012;40.984;2023-03-04T04:29:36;15.27;;;6.82;;
59390;SDS011;53405;57.012;40.984;2023-03-04T04:32:24;15.13;;;6.63;;
59390;SDS011;53405;57.012;40.984;2023-03-04T04:35:12;11.00;;;5.95;;
59390;SDS011;53405;57.012;40.984;2023-03-04T04:38:00;14.15;;;7.05;;
59390;SDS011;53405;57.012;40.984;2023-03-04T04:40:47;15.25;;;6.30;;
59390;SDS011;53405;57.012;40.984;2023-03-04T04:43:35;13.98;;;6.43;;
59390;SDS011;53405;57.012;40.984;2023-03-04T04:46:22;15.15;;;6.50;;
59390;SDS011;53405;57.012;40.984;2023-03-04T04:49:10;13.30;;;6.30;;
59390;SDS011;53405;57.012;40.984;2023-03-04T04:51:57;15.45;;;6.50;;
59390;SDS011;53405;57.012;40.984;2023-03-04T04:54:45;12.45;;;6.03;;
59390;SDS011;53405;57.012;40.984;2023-03-04T04:57:32;17.00;;;7.00;;
59390;SDS011;53405;57.012;40.984;2023-03-04T05:00:20;14.02;;;5.85;;
59390;SDS011;53405;57.012;40.984;2023-03-04T05:03:08;13.00;;;5.60;;
59390;SDS011;53405;57.012;40.984;2023-03-04T05:05:55;13.82;;;6.10;;
59390;SDS011;53405;57.012;40.984;2023-03-04T05:08:44;13.48;;;5.50;;
59390;SDS011;53405;57.012;40.984;2023-03-04T05:11:31;12.88;;;5.38;;
59390;SDS011;53405;57.012;40.984;2023-03-04T05:14:21;11.10;;;4.65;;
59390;SDS011;53405;57.012;40.984;2023-03-04T05:17:09;11.68;;;5.40;;
59390;SDS011;53405;57.012;40.984;2023-03-04T05:19:56;13.27;;;5.75;;
59390;SDS011;53405;57.012;40.984;2023-03-04T05:22:44;12.35;;;5.53;;
59390;SDS011;53405;57.012;40.984;2023-03-04T05:25:31;14.73;;;6.07;;
59390;SDS011;53405;57.012;40.984;2023-03-04T05:28:20;15.13;;;5.90;;
59390;SDS011;53405;57.012;40.984;2023-03-04T05:31:08;14.60;;;6.65;;
59390;SDS011;53405;57.012;40.984;2023-03-04T05:33:56;11.48;;;5.80;;
59390;SDS011;53405;57.012;40.984;2023-03-04T05:36:43;12.80;;;6.20;;
59390;SDS011;53405;57.012;40.984;2023-03-04T05:39:31;14.25;;;6.30;;
59390;SDS011;53405;57.012;40.984;2023-03-04T05:42:18;14.07;;;7.43;;
59390;SDS011;53405;57.012;40.984;2023-03-04T05:45:06;14.88;;;6.00;;
59390;SDS011;53405;57.012;40.984;2023-03-04T05:47:55;14.10;;;6.55;;
59390;SDS011;53405;57.012;40.984;2023-03-04T05:50:43;14.88;;;7.38;;
59390;SDS011;53405;57.012;40.984;2023-03-04T05:53:31;15.45;;;8.35;;
59390;SDS011;53405;57.012;40.984;2023-03-04T05:56:19;17.27;;;9.60;;
59390;SDS011;53405;57.012;40.984;2023-03-04T05:59:07;17.23;;;9.00;;
59390;SDS011;53405;57.012;40.984;2023-03-04T06:01:54;18.67;;;9.50;;
59390;SDS011;53405;57.012;40.984;2023-03-04T06:04:42;17.17;;;8.70;;
59390;SDS011;53405;57.012;40.984;2023-03-04T06:07:30;18.83;;;7.70;;
59390;SDS011;53405;57.012;40.984;2023-03-04T06:10:17;12.52;;;6.60;;
59390;SDS011;53405;57.012;40.984;2023-03-04T06:13:05;14.35;;;7.25;;
59390;SDS011;53405;57.012;40.984;2023-03-04T06:15:54;15.17;;;7.93;;
59390;SDS011;53405;57.012;40.984;2023-03-04T06:18:43;14.75;;;8.05;;
59390;SDS011;53405;57.012;40.984;2023-03-04T06:21:31;12.65;;;6.80;;
59390;SDS011;53405;57.012;40.984;2023-03-04T06:24:20;13.63;;;7.10;;
59390;SDS011;53405;57.012;40.984;2023-03-04T06:27:07;15.23;;;7.22;;
59390;SDS011;53405;57.012;40.984;2023-03-04T06:29:55;16.58;;;7.05;;
59390;SDS011;53405;57.012;40.984;2023-03-04T06:32:42;13.90;;;6.63;;
59390;SDS011;53405;57.012;40.984;2023-03-04T06:35:34;15.93;;;7.50;;
59390;SDS011;53405;57.012;40.984;2023-03-04T06:38:22;15.32;;;6.55;;
59390;SDS011;53405;57.012;40.984;2023-03-04T06:41:10;13.98;;;6.80;;
59390;SDS011;53405;57.012;40.984;2023-03-04T06:43:59;17.13;;;7.15;;
59390;SDS011;53405;57.012;40.984;2023-03-04T06:46:48;15.13;;;7.35;;
59390;SDS011;53405;57.012;40.984;2023-03-04T06:49:36;16.30;;;7.50;;
59390;SDS011;53405;57.012;40.984;2023-03-04T06:52:23;18.08;;;8.38;;
59390;SDS011;53405;57.012;40.984;2023-03-04T06:55:18;16.88;;;7.65;;
59390;SDS011;53405;57.012;40.984;2023-03-04T06:58:06;16.25;;;7.35;;
59390;SDS011;53405;57.012;40.984;2023-03-04T07:00:54;17.55;;;7.20;;
59390;SDS011;53405;57.012;40.984;2023-03-04T07:03:42;17.77;;;7.32;;
59390;SDS011;53405;57.012;40.984;2023-03-04T07:06:31;19.83;;;8.13;;
59390;SDS011;53405;57.012;40.984;2023-03-04T07:09:18;18.70;;;8.70;;
59390;SDS011;53405;57.012;40.984;2023-03-04T07:12:06;17.77;;;8.32;;
59390;SDS011;53405;57.012;40.984;2023-03-04T07:14:54;16.35;;;7.25;;
59390;SDS011;53405;57.012;40.984;2023-03-04T07:17:41;16.02;;;7.82;;
59390;SDS011;53405;57.012;40.984;2023-03-04T07:20:29;15.35;;;7.40;;
59390;SDS011;53405;57.012;40.984;2023-03-04T07:23:17;12.60;;;6.95;;
59390;SDS011;53405;57.012;40.984;2023-03-04T07:26:05;16.27;;;7.50;;
59390;SDS011;53405;57.012;40.984;2023-03-04T07:28:53;13.65;;;6.90;;
59390;SDS011;53405;57.012;40.984;2023-03-04T07:31:43;14.55;;;6.95;;
59390;SDS011;53405;57.012;40.984;2023-03-04T07:34:31;12.73;;;5.75;;
59390;SDS011;53405;57.012;40.984;2023-03-04T07:37:18;13.07;;;6.30;;
59390;SDS011;53405;57.012;40.984;2023-03-04T07:40:06;15.43;;;5.50;;
59390;SDS011;53405;57.012;40.984;2023-03-04T07:42:55;14.57;;;5.60;;
59390;SDS011;53405;57.012;40.984;2023-03-04T07:45:44;11.38;;;5.63;;
59390;SDS011;53405;57.012;40.984;2023-03-04T07:48:32;16.73;;;7.72;;
59390;SDS011;53405;57.012;40.984;2023-03-04T07:51:21;18.58;;;8.40;;
59390;SDS011;53405;57.012;40.984;2023-03-04T07:56:58;13.77;;;7.43;;
59390;SDS011;53405;57.012;40.984;2023-03-04T07:59:46;16.17;;;6.68;;
59390;SDS011;53405;57.012;40.984;2023-03-04T08:02:33;13.25;;;5.97;;
59390;SDS011;53405;57.012;40.984;2023-03-04T08:05:21;13.43;;;6.35;;
59390;SDS011;53405;57.012;40.984;2023-03-04T08:08:09;18.13;;;6.65;;
59390;SDS011;53405;57.012;40.984;2023-03-04T08:10:56;10.63;;;5.30;;
59390;SDS011;53405;57.012;40.984;2023-03-04T08:13:44;12.43;;;5.75;;
59390;SDS011;53405;57.012;40.984;2023-03-04T08:16:31;13.00;;;5.80;;
59390;SDS011;53405;57.012;40.984;2023-03-04T08:19:19;16.02;;;7.30;;
59390;SDS011;53405;57.012;40.984;2023-03-04T08:22:11;14.40;;;7.20;;
59390;SDS011;53405;57.012;40.984;2023-03-04T08:24:59;25.02;;;11.52;;
59390;SDS011;53405;57.012;40.984;2023-03-04T08:27:46;16.27;;;8.00;;
59390;SDS011;53405;57.012;40.984;2023-03-04T08:30:34;17.20;;;9.25;;
59390;SDS011;53405;57.012;40.984;2023-03-04T08:33:26;18.25;;;8.57;;
59390;SDS011;53405;57.012;40.984;2023-03-04T08:36:14;15.05;;;6.70;;
59390;SDS011;53405;57.012;40.984;2023-03-04T08:39:02;13.45;;;6.22;;
59390;SDS011;53405;57.012;40.984;2023-03-04T08:41:50;13.32;;;5.20;;
59390;SDS011;53405;57.012;40.984;2023-03-04T08:44:38;12.30;;;4.90;;
59390;SDS011;53405;57.012;40.984;2023-03-04T08:47:25;10.95;;;4.00;;
59390;SDS011;53405;57.012;40.984;2023-03-04T08:50:13;9.75;;;3.70;;
59390;SDS011;53405;57.012;40.984;2023-03-04T08:53:00;7.95;;;4.03;;
59390;SDS011;53405;57.012;40.984;2023-03-04T08:55:49;9.88;;;4.20;;
59390;SDS011;53405;57.012;40.984;2023-03-04T08:58:37;12.40;;;4.90;;
59390;SDS011;53405;57.012;40.984;2023-03-04T09:01:25;8.52;;;3.50;;
59390;SDS011;53405;57.012;40.984;2023-03-04T09:04:13;10.55;;;4.43;;
59390;SDS011;53405;57.012;40.984;2023-03-04T09:07:00;10.27;;;3.30;;
59390;SDS011;53405;57.012;40.984;2023-03-04T09:09:48;11.90;;;3.75;;
59390;SDS011;53405;57.012;40.984;2023-03-04T09:12:35;9.98;;;3.80;;
59390;SDS011;53405;57.012;40.984;2023-03-04T09:15:23;10.82;;;3.70;;
59390;SDS011;53405;57.012;40.984;2023-03-04T09:18:11;11.38;;;3.55;;
59390;SDS011;53405;57.012;40.984;2023-03-04T09:20:59;9.10;;;3.10;;
59390;SDS011;53405;57.012;40.984;2023-03-04T09:23:47;8.32;;;2.60;;
59390;SDS011;53405;57.012;40.984;2023-03-04T09:26:34;7.53;;;2.83;;
59390;SDS011;53405;57.012;40.984;2023-03-04T09:29:23;7.72;;;2.65;;
59390;SDS011;53405;57.012;40.984;2023-03-04T09:32:10;8.43;;;2.28;;
59390;SDS011;53405;57.012;40.984;2023-03-04T09:34:58;8.70;;;2.40;;
59390;SDS011;53405;57.012;40.984;2023-03-04T09:37:46;7.18;;;2.40;;
59390;SDS011;53405;57.012;40.984;2023-03-04T09:40:39;8.23;;;2.30;;
59390;SDS011;53405;57.012;40.984;2023-03-04T09:43:29;7.97;;;2.55;;
59390;SDS011;53405;57.012;40.984;2023-03-04T09:46:21;7.35;;;2.85;;
59390;SDS011;53405;57.012;40.984;2023-03-04T09:49:15;8.27;;;2.40;;
59390;SDS011;53405;57.012;40.984;2023-03-04T09:52:49;9.00;;;2.72;;
59390;SDS011;53405;57.012;40.984;2023-03-04T09:55:27;7.65;;;2.40;;
59390;SDS011;53405;57.012;40.984;2023-03-04T10:01:32;7.55;;;2.75;;
59390;SDS011;53405;57.012;40.984;2023-03-04T10:07:42;5.10;;;2.22;;
59390;SDS011;53405;57.012;40.984;2023-03-04T10:10:31;6.85;;;2.70;;
59390;SDS011;53405;57.012;40.984;2023-03-04T10:17:06;6.75;;;2.40;;
59390;SDS011;53405;57.012;40.984;2023-03-04T10:23:21;8.75;;;2.45;;
59390;SDS011;53405;57.012;40.984;2023-03-04T10:26:16;5.47;;;2.10;;
59390;SDS011;53405;57.012;40.984;2023-03-04T10:29:08;5.38;;;2.05;;
59390;SDS011;53405;57.012;40.984;2023-03-04T10:32:01;7.40;;;2.13;;
59390;SDS011;53405;57.012;40.984;2023-03-04T10:34:49;5.18;;;1.90;;
59390;SDS011;53405;57.012;40.984;2023-03-04T10:37:45;7.43;;;2.17;;
59390;SDS011;53405;57.012;40.984;2023-03-04T10:40:38;6.70;;;2.15;;
59390;SDS011;53405;57.012;40.984;2023-03-04T10:43:28;8.10;;;2.30;;
59390;SDS011;53405;57.012;40.984;2023-03-04T10:46:16;7.43;;;2.90;;
59390;SDS011;53405;57.012;40.984;2023-03-04T10:49:03;5.68;;;2.40;;
59390;SDS011;53405;57.012;40.984;2023-03-04T10:52:01;8.52;;;3.10;;
59390;SDS011;53405;57.012;40.984;2023-03-04T10:55:02;11.35;;;4.00;;
59390;SDS011;53405;57.012;40.984;2023-03-04T10:58:03;7.63;;;2.70;;
59390;SDS011;53405;57.012;40.984;2023-03-04T11:01:00;9.30;;;3.30;;
59390;SDS011;53405;57.012;40.984;2023-03-04T11:03:50;8.30;;;3.08;;
59390;SDS011;53405;57.012;40.984;2023-03-04T11:06:40;10.77;;;2.92;;
59390;SDS011;53405;57.012;40.984;2023-03-04T11:09:29;7.18;;;2.80;;
59390;SDS011;53405;57.012;40.984;2023-03-04T11:12:21;6.78;;;2.42;;
59390;SDS011;53405;57.012;40.984;2023-03-04T11:15:20;7.32;;;1.33;;
59390;SDS011;53405;57.012;40.984;2023-03-04T11:18:19;7.05;;;1.88;;
59390;SDS011;53405;57.012;40.984;2023-03-04T11:21:14;5.88;;;1.75;;
59390;SDS011;53405;57.012;40.984;2023-03-04T11:24:10;5.32;;;1.75;;
59390;SDS011;53405;57.012;40.984;2023-03-04T11:30:15;6.30;;;1.75;;
59390;SDS011;53405;57.012;40.984;2023-03-04T11:39:37;9.45;;;2.88;;
59390;SDS011;53405;57.012;40.984;2023-03-04T11:42:40;8.60;;;3.05;;
59390;SDS011;53405;57.012;40.984;2023-03-04T11:45:50;6.28;;;2.10;;
59390;SDS011;53405;57.012;40.984;2023-03-04T12:17:28;5.63;;;1.90;;
59390;SDS011;53405;57.012;40.984;2023-03-04T12:26:30;5.43;;;1.58;;
59390;SDS011;53405;57.012;40.984;2023-03-04T12:32:23;6.57;;;2.15;;
59390;SDS011;53405;57.012;40.984;2023-03-04T12:48:11;6.20;;;2.35;;
59390;SDS011;53405;57.012;40.984;2023-03-04T12:57:26;9.85;;;3.33;;
59390;SDS011;53405;57.012;40.984;2023-03-04T13:03:22;10.73;;;3.67;;
59390;SDS011;53405;57.012;40.984;2023-03-04T13:12:19;12.35;;;4.68;;
59390;SDS011;53405;57.012;40.984;2023-03-04T13:21:45;9.55;;;2.85;;
59390;SDS011;53405;57.012;40.984;2023-03-04T13:24:45;8.73;;;3.60;;
59390;SDS011;53405;57.012;40.984;2023-03-04T13:27:45;6.60;;;2.53;;
59390;SDS011;53405;57.012;40.984;2023-03-04T13:42:04;11.90;;;3.92;;
59390;SDS011;53405;57.012;40.984;2023-03-04T13:45:29;10.43;;;4.38;;
59390;SDS011;53405;57.012;40.984;2023-03-04T13:48:29;8.57;;;3.47;;
59390;SDS011;53405;57.012;40.984;2023-03-04T13:57:10;8.48;;;3.20;;
59390;SDS011;53405;57.012;40.984;2023-03-04T14:00:04;12.23;;;5.03;;
59390;SDS011;53405;57.012;40.984;2023-03-04T14:03:10;12.07;;;4.90;;
59390;SDS011;53405;57.012;40.984;2023-03-04T14:09:13;12.63;;;4.78;;
59390;SDS011;53405;57.012;40.984;2023-03-04T14:12:02;12.02;;;5.63;;
59390;SDS011;53405;57.012;40.984;2023-03-04T14:15:00;8.63;;;3.20;;
59390;SDS011;53405;57.012;40.984;2023-03-04T14:17:52;7.60;;;2.90;;
59390;SDS011;53405;57.012;40.984;2023-03-04T14:20:47;8.70;;;2.90;;
59390;SDS011;53405;57.012;40.984;2023-03-04T14:23:35;13.73;;;5.35;;
59390;SDS011;53405;57.012;40.984;2023-03-04T14:26:24;12.93;;;5.97;;
59390;SDS011;53405;57.012;40.984;2023-03-04T14:29:22;13.18;;;5.95;;
59390;SDS011;53405;57.012;40.984;2023-03-04T14:32:15;14.27;;;6.03;;
59390;SDS011;53405;57.012;40.984;2023-03-04T14:35:04;14.75;;;5.03;;
59390;SDS011;53405;57.012;40.984;2023-03-04T14:40:48;11.18;;;4.70;;
59390;SDS011;53405;57.012;40.984;2023-03-04T14:44:11;12.30;;;5.15;;
59390;SDS011;53405;57.012;40.984;2023-03-04T14:50:25;12.60;;;5.47;;
59390;SDS011;53405;57.012;40.984;2023-03-04T14:53:16;10.75;;;5.20;;
59390;SDS011;53405;57.012;40.984;2023-03-04T14:56:07;13.40;;;5.35;;
59390;SDS011;53405;57.012;40.984;2023-03-04T14:58:57;12.35;;;5.50;;
59390;SDS011;53405;57.012;40.984;2023-03-04T15:01:45;12.77;;;5.80;;
59390;SDS011;53405;57.012;40.984;2023-03-04T15:04:32;14.52;;;5.63;;
59390;SDS011;53405;57.012;40.984;2023-03-04T15:07:28;9.70;;;4.82;;
59390;SDS011;53405;57.012;40.984;2023-03-04T15:10:21;10.75;;;5.05;;
59390;SDS011;53405;57.012;40.984;2023-03-04T15:13:18;12.85;;;5.22;;
59390;SDS011;53405;57.012;40.984;2023-03-04T15:16:51;11.30;;;4.90;;
59390;SDS011;53405;57.012;40.984;2023-03-04T15:19:42;14.70;;;4.65;;
59390;SDS011;53405;57.012;40.984;2023-03-04T15:22:29;13.93;;;4.90;;
59390;SDS011;53405;57.012;40.984;2023-03-04T15:25:18;11.85;;;4.43;;
59390;SDS011;53405;57.012;40.984;2023-03-04T15:28:10;10.63;;;4.75;;
59390;SDS011;53405;57.012;40.984;2023-03-04T15:31:03;11.48;;;4.82;;
59390;SDS011;53405;57.012;40.984;2023-03-04T15:33:51;13.20;;;4.72;;
59390;SDS011;53405;57.012;40.984;2023-03-04T15:36:39;11.02;;;4.38;;
59390;SDS011;53405;57.012;40.984;2023-03-04T15:39:36;12.48;;;4.63;;
59390;SDS011;53405;57.012;40.984;2023-03-04T15:42:32;17.90;;;7.57;;
59390;SDS011;53405;57.012;40.984;2023-03-04T15:45:30;12.05;;;5.28;;
59390;SDS011;53405;57.012;40.984;2023-03-04T15:48:23;10.82;;;4.22;;
59390;SDS011;53405;57.012;40.984;2023-03-04T15:51:15;13.57;;;4.90;;
59390;SDS011;53405;57.012;40.984;2023-03-04T15:54:08;15.27;;;6.65;;
59390;SDS011;53405;57.012;40.984;2023-03-04T15:57:07;13.88;;;5.72;;
59390;SDS011;53405;57.012;40.984;2023-03-04T16:00:07;10.57;;;4.57;;
59390;SDS011;53405;57.012;40.984;2023-03-04T16:02:59;10.05;;;4.28;;
59390;SDS011;53405;57.012;40.984;2023-03-04T16:05:48;11.65;;;5.88;;
59390;SDS011;53405;57.012;40.984;2023-03-04T16:08:37;13.52;;;5.00;;
59390;SDS011;53405;57.012;40.984;2023-03-04T16:11:27;9.32;;;4.50;;
59390;SDS011;53405;57.012;40.984;2023-03-04T16:14:17;13.15;;;5.00;;
59390;SDS011;53405;57.012;40.984;2023-03-04T16:17:04;10.25;;;4.10;;
59390;SDS011;53405;57.012;40.984;2023-03-04T16:19:54;10.32;;;4.78;;
59390;SDS011;53405;57.012;40.984;2023-03-04T16:22:42;11.50;;;4.90;;
59390;SDS011;53405;57.012;40.984;2023-03-04T16:25:32;11.70;;;5.43;;
59390;SDS011;53405;57.012;40.984;2023-03-04T16:28:20;15.43;;;6.93;;
59390;SDS011;53405;57.012;40.984;2023-03-04T16:31:11;13.15;;;4.55;;
59390;SDS011;53405;57.012;40.984;2023-03-04T16:33:59;12.00;;;4.80;;
59390;SDS011;53405;57.012;40.984;2023-03-04T16:36:47;10.18;;;4.13;;
59390;SDS011;53405;57.012;40.984;2023-03-04T16:39:35;14.25;;;4.70;;
59390;SDS011;53405;57.012;40.984;2023-03-04T16:42:22;12.48;;;4.50;;
59390;SDS011;53405;57.012;40.984;2023-03-04T16:45:21;10.00;;;4.00;;
59390;SDS011;53405;57.012;40.984;2023-03-04T16:48:11;9.75;;;3.72;;
59390;SDS011;53405;57.012;40.984;2023-03-04T16:50:58;10.98;;;4.10;;
59390;SDS011;53405;57.012;40.984;2023-03-04T16:54:00;10.43;;;4.10;;
59390;SDS011;53405;57.012;40.984;2023-03-04T16:56:57;10.93;;;4.88;;
59390;SDS011;53405;57.012;40.984;2023-03-04T16:59:46;10.60;;;4.50;;
59390;SDS011;53405;57.012;40.984;2023-03-04T17:02:33;9.43;;;4.53;;
59390;SDS011;53405;57.012;40.984;2023-03-04T17:05:22;12.90;;;5.15;;
59390;SDS011;53405;57.012;40.984;2023-03-04T17:08:10;9.15;;;4.40;;
59390;SDS011;53405;57.012;40.984;2023-03-04T17:11:00;10.20;;;4.32;;
59390;SDS011;53405;57.012;40.984;2023-03-04T17:13:48;9.20;;;4.22;;
59390;SDS011;53405;57.012;40.984;2023-03-04T17:16:37;10.80;;;5.57;;
59390;SDS011;53405;57.012;40.984;2023-03-04T17:19:25;12.23;;;5.45;;
59390;SDS011;53405;57.012;40.984;2023-03-04T17:22:13;12.93;;;5.03;;
59390;SDS011;53405;57.012;40.984;2023-03-04T17:25:00;9.20;;;4.68;;
59390;SDS011;53405;57.012;40.984;2023-03-04T17:27:49;11.90;;;4.32;;
59390;SDS011;53405;57.012;40.984;2023-03-04T17:30:37;10.70;;;4.68;;
59390;SDS011;53405;57.012;40.984;2023-03-04T17:33:25;9.38;;;3.80;;
59390;SDS011;53405;57.012;40.984;2023-03-04T17:36:16;10.27;;;4.10;;
59390;SDS011;53405;57.012;40.984;2023-03-04T17:39:05;11.55;;;4.68;;
59390;SDS011;53405;57.012;40.984;2023-03-04T17:41:53;9.02;;;4.35;;
59390;SDS011;53405;57.012;40.984;2023-03-04T17:44:41;11.55;;;5.28;;
59390;SDS011;53405;57.012;40.984;2023-03-04T17:47:28;13.70;;;5.63;;
59390;SDS011;53405;57.012;40.984;2023-03-04T17:50:17;12.95;;;5.95;;
59390;SDS011;53405;57.012;40.984;2023-03-04T17:53:07;13.98;;;6.60;;
59390;SDS011;53405;57.012;40.984;2023-03-04T17:55:56;15.75;;;8.07;;
59390;SDS011;53405;57.012;40.984;2023-03-04T17:58:48;15.05;;;6.10;;
59390;SDS011;53405;57.012;40.984;2023-03-04T18:01:36;12.57;;;5.60;;
59390;SDS011;53405;57.012;40.984;2023-03-04T18:04:23;12.70;;;4.82;;
59390;SDS011;53405;57.012;40.984;2023-03-04T18:07:14;8.55;;;4.32;;
59390;SDS011;53405;57.012;40.984;2023-03-04T18:10:02;8.82;;;3.90;;
59390;SDS011;53405;57.012;40.984;2023-03-04T18:12:50;11.05;;;4.03;;
59390;SDS011;53405;57.012;40.984;2023-03-04T18:15:37;10.23;;;4.57;;
59390;SDS011;53405;57.012;40.984;2023-03-04T18:18:25;11.27;;;4.70;;
59390;SDS011;53405;57.012;40.984;2023-03-04T18:21:13;9.43;;;3.72;;
59390;SDS011;53405;57.012;40.984;2023-03-04T18:24:00;8.65;;;4.22;;
59390;SDS011;53405;57.012;40.984;2023-03-04T18:26:48;11.13;;;5.32;;
59390;SDS011;53405;57.012;40.984;2023-03-04T18:29:36;11.90;;;5.25;;
59390;SDS011;53405;57.012;40.984;2023-03-04T18:32:23;12.90;;;5.43;;
59390;SDS011;53405;57.012;40.984;2023-03-04T18:35:12;11.82;;;6.03;;
59390;SDS011;53405;57.012;40.984;2023-03-04T18:38:02;11.77;;;5.97;;
59390;SDS011;53405;57.012;40.984;2023-03-04T18:40:49;14.13;;;7.47;;
59390;SDS011;53405;57.012;40.984;2023-03-04T18:43:39;14.48;;;6.78;;
59390;SDS011;53405;57.012;40.984;2023-03-04T18:46:29;11.57;;;6.30;;